createdAt,value
2019-05-06T00:00:53.141Z,10.51
2019-05-06T00:01:20.171Z,10.46
2019-05-06T00:02:00.655Z,10.54
2019-05-06T00:02:40.948Z,10.47
2019-05-06T00:03:21.461Z,10.52
2019-05-06T00:04:01.858Z,10.46
2019-05-06T00:04:42.254Z,10.43
2019-05-06T00:05:22.621Z,10.46
2019-05-06T00:06:03.930Z,10.43
2019-05-06T00:11:00.215Z,10.47
2019-05-06T00:11:40.648Z,10.44
2019-05-06T00:12:21.058Z,10.55
2019-05-06T00:13:01.465Z,10.51
2019-05-06T00:13:41.860Z,10.54
2019-05-06T00:14:23.518Z,10.55
2019-05-06T00:15:03.927Z,10.51
2019-05-06T00:15:43.632Z,10.52
2019-05-06T00:16:23.829Z,10.57
2019-05-06T00:17:04.065Z,10.58
2019-05-06T00:17:44.616Z,10.58
2019-05-06T00:18:24.748Z,10.57
2019-05-06T00:19:05.161Z,10.57
2019-05-06T00:19:45.461Z,10.55
2019-05-06T00:20:25.835Z,10.54
2019-05-06T00:21:06.238Z,10.54
2019-05-06T00:21:46.630Z,10.46
2019-05-06T00:22:27.043Z,10.57
2019-05-06T00:23:07.447Z,10.55
2019-05-06T00:23:47.854Z,10.54
2019-05-06T00:24:28.257Z,10.51
2019-05-06T00:25:08.609Z,10.55
2019-05-06T00:25:49.018Z,10.54
2019-05-06T00:26:29.639Z,10.47
2019-05-06T00:27:50.474Z,10.54
2019-05-06T00:28:30.854Z,10.6
2019-05-06T00:29:11.287Z,10.6
2019-05-06T00:29:51.671Z,10.66
2019-05-06T00:30:34.429Z,10.58
2019-05-06T00:31:15.990Z,10.68
2019-05-06T00:31:53.610Z,10.7
2019-05-06T00:32:34.774Z,10.73
2019-05-06T00:33:13.888Z,10.7
2019-05-06T00:33:54.195Z,10.66
2019-05-06T00:34:34.415Z,10.7
2019-05-06T00:35:14.833Z,10.7
2019-05-06T00:35:56.101Z,10.7
2019-05-06T00:36:36.868Z,10.66
2019-05-06T00:37:17.273Z,10.7
2019-05-06T00:37:57.700Z,10.69
2019-05-06T00:38:38.128Z,10.63
2019-05-06T00:39:18.527Z,10.72
2019-05-06T00:39:58.956Z,10.65
2019-05-06T00:40:39.358Z,10.7
2019-05-06T00:41:19.796Z,10.78
2019-05-06T00:42:00.210Z,10.7
2019-05-06T00:42:40.611Z,10.69
2019-05-06T00:43:21.155Z,10.63
2019-05-06T00:44:03.823Z,10.55
2019-05-06T00:44:43.887Z,10.51
2019-05-06T00:45:24.265Z,10.6
2019-05-06T00:46:04.614Z,10.44
2019-05-06T00:46:43.747Z,10.51
2019-05-06T00:47:24.544Z,10.43
2019-05-06T00:48:04.602Z,10.49
2019-05-06T00:48:44.867Z,10.47
2019-05-06T00:49:24.775Z,10.38
2019-05-06T00:50:05.180Z,10.47
2019-05-06T00:50:45.574Z,10.38
2019-05-06T00:51:25.983Z,10.36
2019-05-06T00:52:06.436Z,10.38
2019-05-06T00:52:46.848Z,10.43
2019-05-06T00:53:27.223Z,10.43
2019-05-06T00:54:07.653Z,10.38
2019-05-06T00:54:49.349Z,10.46
2019-05-06T00:55:29.780Z,10.51
2019-05-06T00:56:10.194Z,10.49
2019-05-06T00:56:50.602Z,10.49
2019-05-06T00:57:31.032Z,10.62
2019-05-06T00:58:11.463Z,10.6
2019-05-06T00:58:51.887Z,10.66
2019-05-06T00:59:34.405Z,10.6
2019-05-06T01:00:13.521Z,10.73
2019-05-06T01:00:53.761Z,10.76
2019-05-06T01:01:34.425Z,10.81
2019-05-06T01:02:14.111Z,10.8
2019-05-06T01:02:54.470Z,10.86
2019-05-06T01:03:34.933Z,10.9
2019-05-06T01:04:15.228Z,10.81
2019-05-06T01:06:14.175Z,10.78
2019-05-06T01:06:54.413Z,10.75
2019-05-06T01:07:34.445Z,10.73
2019-05-06T01:08:14.255Z,10.72
2019-05-06T01:08:54.699Z,10.7
2019-05-06T01:09:35.124Z,10.7
2019-05-06T01:10:15.538Z,10.68
2019-05-06T01:10:55.951Z,10.51
2019-05-06T01:11:36.352Z,10.54
2019-05-06T01:12:16.805Z,10.51
2019-05-06T01:12:57.176Z,10.62
2019-05-06T01:13:37.591Z,10.57
2019-05-06T01:14:18.077Z,10.51
2019-05-06T01:14:58.539Z,10.55
2019-05-06T01:15:38.892Z,10.6
2019-05-06T01:16:19.304Z,10.58
2019-05-06T01:16:59.736Z,10.58
2019-05-06T01:17:40.536Z,10.54
2019-05-06T01:18:20.965Z,10.51
2019-05-06T01:19:01.324Z,10.58
2019-05-06T01:19:41.713Z,10.68
2019-05-06T01:21:03.766Z,10.6
2019-05-06T01:21:44.671Z,10.63
2019-05-06T01:22:24.618Z,10.6
2019-05-06T01:23:03.909Z,10.57
2019-05-06T01:23:44.289Z,10.58
2019-05-06T01:24:24.737Z,10.55
2019-05-06T01:25:05.135Z,10.55
2019-05-06T01:25:45.555Z,10.49
2019-05-06T01:26:25.976Z,10.54
2019-05-06T01:27:06.395Z,10.38
2019-05-06T01:27:46.807Z,10.35
2019-05-06T01:28:27.261Z,10.35
2019-05-06T01:29:07.672Z,10.34
2019-05-06T01:29:48.091Z,10.36
2019-05-06T01:30:28.510Z,10.31
2019-05-06T01:31:08.937Z,10.2
2019-05-06T01:31:49.338Z,10.25
2019-05-06T01:32:29.756Z,10.25
2019-05-06T01:33:10.108Z,10.22
2019-05-06T01:33:50.518Z,10.25
2019-05-06T01:34:30.916Z,10.25
2019-05-06T01:35:11.322Z,10.18
2019-05-06T01:35:53.981Z,10.25
2019-05-06T01:36:34.260Z,10.28
2019-05-06T01:37:14.226Z,10.31
2019-05-06T01:37:54.533Z,10.38
2019-05-06T01:38:34.029Z,10.36
2019-05-06T01:39:13.998Z,10.36
2019-05-06T01:39:54.354Z,10.38
2019-05-06T01:40:34.752Z,10.38
2019-05-06T01:41:15.166Z,10.43
2019-05-06T01:41:55.593Z,10.35
2019-05-06T01:42:36.008Z,10.31
2019-05-06T01:43:16.416Z,10.32
2019-05-06T01:43:56.832Z,10.38
2019-05-06T01:44:37.236Z,10.38
2019-05-06T01:45:17.669Z,10.35
2019-05-06T01:45:58.103Z,10.43
2019-05-06T01:46:38.543Z,10.43
2019-05-06T01:47:18.943Z,10.49
2019-05-06T01:47:59.367Z,10.55
2019-05-06T01:48:39.784Z,10.51
2019-05-06T01:49:20.200Z,10.54
2019-05-06T01:50:00.622Z,10.55
2019-05-06T01:50:41.039Z,10.58
2019-05-06T01:51:21.460Z,10.63
2019-05-06T01:52:03.877Z,10.52
2019-05-06T01:52:44.206Z,10.62
2019-05-06T01:53:24.156Z,10.72
2019-05-06T01:54:03.844Z,10.72
2019-05-06T01:54:43.665Z,10.7
2019-05-06T01:55:24.071Z,10.83
2019-05-06T01:56:04.434Z,10.78
2019-05-06T01:56:44.840Z,10.81
2019-05-06T01:57:25.251Z,10.93
2019-05-06T01:58:05.665Z,10.99
2019-05-06T01:58:46.117Z,10.98
2019-05-06T01:59:26.494Z,10.98
2019-05-06T02:00:06.916Z,11.01
2019-05-06T02:00:47.325Z,10.99
2019-05-06T02:01:27.745Z,10.94
2019-05-06T02:02:08.155Z,11.13
2019-05-06T02:02:48.583Z,10.99
2019-05-06T02:03:29.012Z,11.09
2019-05-06T02:04:09.407Z,10.99
2019-05-06T02:04:49.834Z,10.98
2019-05-06T02:05:30.240Z,10.88
2019-05-06T02:06:10.647Z,11.03
2019-05-06T02:06:51.046Z,11.01
2019-05-06T02:07:31.472Z,11.09
2019-05-06T02:08:13.481Z,11.06
2019-05-06T02:08:53.930Z,11.09
2019-05-06T02:09:34.195Z,11.09
2019-05-06T02:10:14.149Z,11.06
2019-05-06T02:10:54.501Z,10.98
2019-05-06T02:11:34.079Z,11.06
2019-05-06T02:12:14.543Z,11.01
2019-05-06T02:12:54.952Z,11.02
2019-05-06T02:13:35.356Z,10.93
2019-05-06T02:14:15.782Z,10.87
2019-05-06T02:14:56.191Z,10.76
2019-05-06T02:15:36.610Z,10.65
2019-05-06T02:16:17.031Z,10.72
2019-05-06T02:16:57.461Z,10.66
2019-05-06T02:17:37.879Z,10.62
2019-05-06T02:18:18.321Z,10.66
2019-05-06T02:18:58.740Z,10.63
2019-05-06T02:19:39.177Z,10.69
2019-05-06T02:20:19.603Z,10.7
2019-05-06T02:20:59.972Z,10.58
2019-05-06T02:21:40.376Z,10.62
2019-05-06T02:22:20.762Z,10.49
2019-05-06T02:23:01.184Z,10.46
2019-05-06T02:23:41.563Z,10.31
2019-05-06T02:24:24.117Z,10.35
2019-05-06T02:25:04.289Z,10.34
2019-05-06T02:25:44.562Z,10.26
2019-05-06T02:26:23.876Z,10.31
2019-05-06T02:27:04.468Z,10.28
2019-05-06T02:27:44.485Z,10.28
2019-05-06T02:28:24.462Z,10.22
2019-05-06T02:29:04.829Z,10.34
2019-05-06T02:29:45.181Z,10.34
2019-05-06T02:30:25.578Z,10.29
2019-05-06T02:31:05.997Z,10.26
2019-05-06T02:31:46.349Z,10.29
2019-05-06T02:32:30.905Z,10.28
2019-05-06T02:33:07.159Z,10.26
2019-05-06T02:33:47.602Z,10.25
2019-05-06T02:34:28.003Z,10.17
2019-05-06T02:35:08.427Z,10.16
2019-05-06T02:35:48.947Z,10.11
2019-05-06T02:36:29.384Z,10.17
2019-05-06T02:37:09.789Z,10.2
2019-05-06T02:37:50.203Z,10.22
2019-05-06T02:38:38.885Z,10.1
2019-05-06T02:39:13.827Z,10.16
2019-05-06T02:39:53.275Z,10.13
2019-05-06T02:40:33.155Z,10.16
2019-05-06T02:41:13.393Z,10.16
2019-05-06T02:41:54.810Z,10.17
2019-05-06T02:42:33.766Z,10.25
2019-05-06T02:43:13.637Z,10.18
2019-05-06T02:43:54.271Z,10.17
2019-05-06T02:44:34.376Z,10.18
2019-05-06T02:45:14.682Z,10.22
2019-05-06T02:45:55.094Z,10.17
2019-05-06T02:46:35.449Z,10.17
2019-05-06T02:47:15.879Z,10.1
2019-05-06T02:49:28.489Z,10.02
2019-05-06T02:50:08.906Z,9.99
2019-05-06T02:50:49.305Z,10.02
2019-05-06T02:51:29.715Z,9.91
2019-05-06T02:52:10.148Z,10.01
2019-05-06T02:52:53.381Z,10.06
2019-05-06T02:53:33.341Z,10.11
2019-05-06T02:54:13.501Z,10.18
2019-05-06T02:54:53.597Z,10.2
2019-05-06T02:55:35.489Z,10.22
2019-05-06T02:56:13.339Z,10.28
2019-05-06T02:56:53.332Z,10.2
2019-05-06T02:57:33.672Z,10.24
2019-05-06T02:58:14.783Z,10.22
2019-05-06T02:58:54.293Z,10.16
2019-05-06T02:59:34.679Z,10.25
2019-05-06T03:00:15.116Z,10.11
2019-05-06T03:00:55.477Z,10.09
2019-05-06T03:01:35.881Z,10.04
2019-05-06T03:02:26.455Z,10.04
2019-05-06T03:02:56.681Z,9.99
2019-05-06T03:03:37.143Z,10.11
2019-05-06T03:04:17.650Z,10.02
2019-05-06T03:04:58.001Z,10.01
2019-05-06T03:05:38.383Z,10.01
2019-05-06T03:06:18.829Z,10.01
2019-05-06T03:06:59.170Z,10.01
2019-05-06T03:07:39.668Z,10.07
2019-05-06T03:08:19.950Z,10.06
2019-05-06T03:09:02.961Z,10.06
2019-05-06T03:09:40.755Z,10.06
2019-05-06T03:10:24.151Z,9.92
2019-05-06T03:11:03.887Z,9.93
2019-05-06T03:11:43.765Z,9.96
2019-05-06T03:12:22.938Z,9.89
2019-05-06T03:13:03.061Z,9.93
2019-05-06T03:13:43.863Z,9.95
2019-05-06T03:14:23.683Z,10.07
2019-05-06T03:15:44.401Z,9.96
2019-05-06T03:16:24.788Z,9.95
2019-05-06T03:17:05.138Z,9.91
2019-05-06T03:17:45.544Z,9.96
2019-05-06T03:18:25.922Z,9.89
2019-05-06T03:19:06.229Z,9.91
2019-05-06T03:19:46.630Z,9.77
2019-05-06T03:21:07.918Z,9.86
2019-05-06T03:21:48.286Z,9.73
2019-05-06T03:22:28.897Z,9.78
2019-05-06T03:23:09.352Z,9.75
2019-05-06T03:23:49.723Z,9.71
2019-05-06T03:24:32.738Z,9.62
2019-05-06T03:25:13.281Z,9.59
2019-05-06T03:25:53.181Z,9.6
2019-05-06T03:26:33.102Z,9.58
2019-05-06T03:27:14.259Z,9.62
2019-05-06T03:27:53.915Z,9.62
2019-05-06T03:28:34.253Z,9.65
2019-05-06T03:29:14.532Z,9.62
2019-05-06T03:29:54.975Z,9.6
2019-05-06T03:30:36.425Z,9.53
2019-05-06T03:31:16.966Z,9.58
2019-05-06T03:31:58.477Z,9.58
2019-05-06T03:33:00.021Z,9.4
2019-05-06T03:34:17.636Z,9.3
2019-05-06T03:35:00.074Z,9.38
2019-05-06T03:35:35.719Z,9.23
2019-05-06T03:36:14.005Z,9.31
2019-05-06T03:36:47.990Z,9.26
2019-05-06T03:37:23.812Z,9.26
2019-05-06T03:38:03.809Z,9.19
2019-05-06T03:38:43.121Z,9.19
2019-05-06T03:39:23.274Z,9.1
2019-05-06T03:40:03.325Z,9.12
2019-05-06T03:40:45.801Z,9.12
2019-05-06T03:41:26.579Z,9.08
2019-05-06T03:42:05.003Z,9.12
2019-05-06T03:42:45.035Z,9.08
2019-05-06T03:43:25.387Z,9.06
2019-05-06T03:44:05.785Z,9.1
2019-05-06T03:44:46.181Z,8.98
2019-05-06T03:45:26.761Z,9
2019-05-06T03:46:07.028Z,8.89
2019-05-06T03:46:47.376Z,8.91
2019-05-06T03:47:27.805Z,8.91
2019-05-06T03:48:48.641Z,8.93
2019-05-06T03:49:28.969Z,8.91
2019-05-06T03:50:09.362Z,8.85
2019-05-06T03:50:49.755Z,8.89
2019-05-06T03:51:30.181Z,8.94
2019-05-06T03:52:13.389Z,8.88
2019-05-06T03:52:55.812Z,8.91
2019-05-06T03:53:33.276Z,8.93
2019-05-06T03:54:12.766Z,8.98
2019-05-06T03:54:53.562Z,8.97
2019-05-06T03:55:34.154Z,9
2019-05-06T03:56:15.292Z,8.91
2019-05-06T03:56:53.788Z,8.91
2019-05-06T03:57:35.899Z,8.94
2019-05-06T03:58:14.173Z,8.91
2019-05-06T03:58:54.528Z,8.98
2019-05-06T03:59:34.917Z,8.88
2019-05-06T04:00:15.904Z,8.88
2019-05-06T04:00:55.760Z,8.89
2019-05-06T04:01:36.670Z,8.91
2019-05-06T04:02:17.076Z,8.88
2019-05-06T04:02:57.448Z,8.97
2019-05-06T04:04:18.276Z,8.89
2019-05-06T04:04:58.691Z,8.93
2019-05-06T04:05:39.115Z,8.89
2019-05-06T04:06:19.503Z,8.93
2019-05-06T04:07:02.995Z,8.89
2019-05-06T04:07:45.237Z,8.93
2019-05-06T04:08:23.923Z,8.91
2019-05-06T04:09:03.532Z,8.91
2019-05-06T04:09:44.141Z,8.96
2019-05-06T04:10:22.939Z,8.98
2019-05-06T04:11:03.275Z,8.98
2019-05-06T04:11:43.497Z,8.98
2019-05-06T04:12:23.966Z,8.91
2019-05-06T04:13:04.420Z,8.93
2019-05-06T04:13:44.698Z,8.94
2019-05-06T04:14:25.090Z,8.91
2019-05-06T04:15:06.251Z,8.96
2019-05-06T04:15:47.610Z,8.94
2019-05-06T04:16:27.170Z,8.91
2019-05-06T04:17:07.576Z,8.93
2019-05-06T04:17:47.989Z,8.91
2019-05-06T04:19:08.770Z,8.97
2019-05-06T04:19:49.164Z,8.94
2019-05-06T04:20:29.582Z,8.89
2019-05-06T04:21:10.111Z,8.94
2019-05-06T04:21:53.006Z,8.91
2019-05-06T04:22:33.160Z,8.89
2019-05-06T04:23:13.339Z,8.75
2019-05-06T04:23:53.344Z,8.79
2019-05-06T04:24:33.656Z,8.8
2019-05-06T04:25:13.914Z,8.73
2019-05-06T04:25:55.285Z,8.82
2019-05-06T04:27:16.137Z,8.94
2019-05-06T05:06:34.603Z,8.49
2019-05-06T05:07:14.746Z,8.47
2019-05-06T05:07:57.015Z,8.39
2019-05-06T05:08:37.716Z,8.4
2019-05-06T05:09:19.328Z,8.43
2019-05-06T05:10:03.204Z,8.4
2019-05-06T05:10:43.080Z,8.5
2019-05-06T05:11:22.608Z,8.52
2019-05-06T05:13:22.969Z,8.55
2019-05-06T05:14:02.774Z,8.58
2019-05-06T05:14:42.278Z,8.61
2019-05-06T05:15:22.764Z,8.68
2019-05-06T05:16:02.313Z,8.8
2019-05-06T05:16:42.433Z,8.89
2019-05-06T05:17:22.839Z,8.96
2019-05-06T05:18:10.363Z,9.03
2019-05-06T05:18:52.596Z,8.97
2019-05-06T05:19:32.712Z,8.98
2019-05-06T05:20:12.645Z,8.94
2019-05-06T05:20:52.810Z,8.98
2019-05-06T05:21:32.690Z,8.91
2019-05-06T05:22:13.044Z,8.98
2019-05-06T05:22:53.752Z,9.26
2019-05-06T05:23:33.968Z,9.19
2019-05-06T05:24:14.796Z,9.23
2019-05-06T05:24:55.737Z,9.23
2019-05-06T05:25:38.229Z,9.2
2019-05-06T05:26:22.502Z,9.22
2019-05-06T05:27:03.468Z,9.3
2019-05-06T05:27:43.887Z,9.34
2019-05-06T05:28:25.218Z,9.26
2019-05-06T05:29:05.666Z,9.3
2019-05-06T05:29:46.051Z,9.32
2019-05-06T05:30:27.442Z,9.27
2019-05-06T05:31:07.959Z,9.48
2019-05-06T05:31:48.417Z,9.49
2019-05-06T05:32:28.656Z,9.59
2019-05-06T05:33:09.180Z,9.68
2019-05-06T05:35:13.289Z,9.73
2019-05-06T05:38:54.424Z,9.78
2019-05-06T05:39:36.374Z,9.73
2019-05-06T05:40:15.859Z,9.77
2019-05-06T05:40:56.595Z,9.74
2019-05-06T05:41:37.067Z,9.86
2019-05-06T05:42:17.889Z,9.8
2019-05-06T05:42:58.333Z,9.89
2019-05-06T05:43:39.577Z,9.85
2019-05-06T05:44:19.260Z,9.88
2019-05-06T05:45:02.411Z,9.91
2019-05-06T05:45:42.446Z,9.75
2019-05-06T05:46:23.276Z,9.8
2019-05-06T05:47:03.768Z,9.78
2019-05-06T05:47:44.177Z,9.86
2019-05-06T05:48:24.601Z,9.92
2019-05-06T05:49:05.116Z,9.99
2019-05-06T05:49:45.637Z,9.86
2019-05-06T05:50:25.965Z,9.89
2019-05-06T05:51:06.588Z,9.83
2019-05-06T05:51:48.547Z,9.85
2019-05-06T05:52:28.994Z,9.89
2019-05-06T05:56:48.217Z,9.7
2019-05-06T05:57:27.847Z,9.8
2019-05-06T05:58:08.241Z,9.7
2019-05-06T05:58:48.677Z,9.73
2019-05-06T05:59:29.185Z,9.71
2019-05-06T06:00:12.978Z,9.75
2019-05-06T06:00:53.985Z,9.85
2019-05-06T06:01:35.547Z,9.88
2019-05-06T06:02:16.501Z,9.88
2019-05-06T06:02:57.331Z,9.95
2019-05-06T06:03:42.847Z,9.96
2019-05-06T06:04:25.363Z,9.99
2019-05-06T06:05:05.930Z,10.14
2019-05-06T06:05:46.415Z,10.09
2019-05-06T06:06:27.939Z,10.02
2019-05-06T06:07:09.188Z,9.98
2019-05-06T06:07:50.220Z,10.01
2019-05-06T06:08:32.742Z,10.01
2019-05-06T06:09:14.414Z,9.92
2019-05-06T06:09:55.676Z,9.95
2019-05-06T06:10:38.667Z,10.06
2019-05-06T06:11:19.526Z,10.06
2019-05-06T06:12:02.699Z,10.14
2019-05-06T06:12:42.893Z,10.2
2019-05-06T06:13:23.893Z,10.18
2019-05-06T06:14:05.041Z,10.17
2019-05-06T06:14:47.286Z,10.2
2019-05-06T06:15:26.484Z,10.24
2019-05-06T06:16:07.626Z,10.36
2019-05-06T06:16:49.040Z,10.36
2019-05-06T06:17:29.417Z,10.47
2019-05-06T06:18:10.168Z,10.49
2019-05-06T06:27:07.327Z,11.57
2019-05-06T06:27:52.061Z,11.75
2019-05-06T06:28:33.077Z,11.79
2019-05-06T06:29:14.059Z,12.01
2019-05-06T06:29:54.014Z,12.03
2019-05-06T06:30:36.326Z,12.15
2019-05-06T06:31:17.586Z,12.22
2019-05-06T06:31:58.561Z,12.22
2019-05-06T06:32:38.378Z,12.26
2019-05-06T06:33:22.303Z,12.26
2019-05-06T06:35:47.274Z,12.07
2019-05-06T06:36:28.616Z,11.93
2019-05-06T06:37:09.328Z,11.96
2019-05-06T06:37:52.179Z,11.98
2019-05-06T06:38:33.378Z,12.05
2019-05-06T06:39:14.281Z,11.96
2019-05-06T06:39:54.377Z,11.88
2019-05-06T06:40:34.888Z,12.11
2019-05-06T06:41:22.602Z,12.08
2019-05-06T06:42:07.402Z,12.15
2019-05-06T06:42:47.845Z,12.3
2019-05-06T06:43:28.202Z,12.33
2019-05-06T06:44:08.897Z,12.4
2019-05-06T06:44:51.581Z,12.54
2019-05-06T06:45:30.033Z,12.56
2019-05-06T06:46:12.610Z,12.55
2019-05-06T06:46:52.476Z,12.61
2019-05-06T06:47:32.911Z,12.59
2019-05-06T06:48:14.597Z,12.56
2019-05-06T06:48:54.102Z,12.58
2019-05-06T06:49:34.737Z,12.55
2019-05-06T06:50:14.949Z,12.46
2019-05-06T06:50:55.386Z,12.49
2019-05-06T06:51:37.019Z,12.49
2019-05-06T06:52:16.943Z,12.48
2019-05-06T06:54:15.905Z,12.55
2019-05-06T08:52:27.229Z,13.14
2019-05-06T08:53:07.324Z,13.21
2019-05-06T08:53:47.703Z,13.27
2019-05-06T08:54:28.196Z,13.28
2019-05-06T08:55:09.235Z,13.41
2019-05-06T08:56:04.036Z,13.48
2019-05-06T08:56:44.565Z,13.55
2019-05-06T08:57:25.166Z,13.51
2019-05-06T08:58:06.001Z,13.46
2019-05-06T08:58:46.471Z,13.43
2019-05-06T08:59:26.977Z,13.47
2019-05-06T09:00:07.312Z,13.51
2019-05-06T09:00:47.946Z,13.55
2019-05-06T09:01:29.482Z,13.54
2019-05-06T09:02:13.688Z,13.51
2019-05-06T09:02:53.058Z,13.53
2019-05-06T09:03:35.545Z,13.57
2019-05-06T09:04:16.517Z,13.71
2019-05-06T09:04:57.040Z,13.75
2019-05-06T09:05:37.462Z,13.87
2019-05-06T09:10:03.881Z,14.09
2019-05-06T09:13:24.393Z,14.17
2019-05-06T09:14:09.526Z,14.12
2019-05-06T09:14:47.793Z,14.12
2019-05-06T09:15:29.132Z,14.09
2019-05-06T09:16:10.128Z,14.19
2019-05-06T09:16:53.678Z,14.36
2019-05-06T09:17:32.888Z,14.45
2019-05-06T09:18:19.000Z,14.46
2019-05-06T09:19:03.029Z,14.53
2019-05-06T09:19:42.500Z,14.66
2019-05-06T09:20:23.368Z,14.66
2019-05-06T09:21:02.930Z,14.83
2019-05-06T09:21:46.270Z,14.98
2019-05-06T09:22:24.873Z,15.23
2019-05-06T09:23:05.443Z,15.4
2019-05-06T09:23:46.399Z,15.41
2019-05-06T09:24:26.990Z,15.6
2019-05-06T09:25:07.567Z,15.67
2019-05-06T09:25:48.058Z,15.67
2019-05-06T09:28:06.357Z,16.22
2019-05-06T09:28:45.547Z,16.23
2019-05-06T09:29:26.518Z,16.33
2019-05-06T09:30:09.978Z,16.25
2019-05-06T09:30:52.603Z,15.91
2019-05-06T09:31:33.272Z,15.85
2019-05-06T09:33:33.377Z,15.81
2019-05-06T09:34:14.725Z,15.85
2019-05-06T09:34:55.871Z,15.96
2019-05-06T09:35:36.352Z,15.98
2019-05-06T09:36:16.914Z,16.11
2019-05-06T09:38:05.091Z,16.33
2019-05-06T09:38:47.330Z,16.32
2019-05-06T09:39:27.958Z,16.3
2019-05-06T09:40:09.079Z,16.48
2019-05-06T09:41:58.116Z,16.5
2019-05-06T09:42:38.460Z,16.51
2019-05-06T09:43:22.230Z,16.59
2019-05-06T09:44:03.233Z,16.57
2019-05-06T09:44:43.861Z,16.6
2019-05-06T09:45:24.978Z,16.54
2019-05-06T09:46:07.194Z,16.57
2019-05-06T09:46:48.599Z,16.55
2019-05-06T09:52:29.354Z,16.51
2019-05-06T09:55:18.618Z,16.63
2019-05-06T09:56:03.301Z,16.6
2019-05-06T09:56:49.773Z,16.5
2019-05-06T09:57:32.647Z,16.63
2019-05-06T09:58:14.656Z,16.57
2019-05-06T09:59:02.466Z,16.57
2019-05-06T09:59:43.329Z,16.62
2019-05-06T10:00:24.664Z,16.62
2019-05-06T10:01:05.041Z,16.57
2019-05-06T10:01:45.752Z,16.59
2019-05-06T10:03:47.956Z,16.59
2019-05-06T10:04:28.326Z,16.63
2019-05-06T10:05:08.910Z,16.65
2019-05-06T10:05:53.505Z,16.59
2019-05-06T10:07:54.971Z,16.62
2019-05-06T10:09:24.831Z,16.54
2019-05-06T10:10:03.414Z,16.52
2019-05-06T10:10:55.531Z,16.5
2019-05-06T10:11:26.259Z,16.45
2019-05-06T10:12:09.301Z,16.36
2019-05-06T10:12:52.849Z,16.37
2019-05-06T10:13:32.956Z,16.29
2019-05-06T10:14:18.280Z,16.14
2019-05-06T10:15:03.470Z,16.08
2019-05-06T10:15:45.042Z,16.07
2019-05-06T10:16:29.168Z,15.92
2019-05-06T10:17:09.645Z,15.78
2019-05-06T10:17:58.223Z,15.81
2019-05-06T10:20:42.918Z,15.78
2019-05-06T10:21:23.013Z,15.73
2019-05-06T10:22:03.624Z,15.67
2019-05-06T10:22:43.758Z,15.7
2019-05-06T10:23:26.869Z,15.62
2019-05-06T10:24:07.506Z,15.68
2019-05-06T10:24:47.963Z,15.58
2019-05-06T10:25:28.530Z,15.62
2019-05-06T10:26:08.823Z,15.49
2019-05-06T10:26:49.349Z,15.56
2019-05-06T10:27:33.706Z,15.59
2019-05-06T10:28:14.266Z,15.52
2019-05-06T11:07:29.173Z,15.28
2019-05-06T11:08:02.309Z,15.35
2019-05-06T11:08:42.025Z,15.3
2019-05-06T11:09:22.714Z,15.3
2019-05-06T11:10:06.338Z,15.3
2019-05-06T11:10:49.922Z,15.33
2019-05-06T11:11:38.615Z,15.4
2019-05-06T11:12:18.305Z,15.41
2019-05-06T11:12:59.818Z,15.43
2019-05-06T11:14:59.492Z,15.4
2019-05-06T11:15:43.330Z,15.37
2019-05-06T11:16:30.104Z,15.34
2019-05-06T11:17:12.928Z,15.34
2019-05-06T11:17:57.472Z,15.41
2019-05-06T11:18:37.877Z,15.44
2019-05-06T11:19:22.280Z,15.41
2019-05-06T11:20:02.951Z,15.4
2019-05-06T11:20:43.692Z,15.56
2019-05-06T11:21:22.559Z,15.51
2019-05-06T11:22:03.553Z,15.52
2019-05-06T11:22:46.382Z,15.44
2019-05-06T11:25:09.179Z,15.37
2019-05-06T11:25:53.685Z,15.37
2019-05-06T11:26:37.802Z,15.38
2019-05-06T11:27:28.575Z,15.4
2019-05-06T11:28:02.886Z,15.46
2019-05-06T11:28:44.443Z,15.52
2019-05-06T11:29:26.662Z,15.43
2019-05-06T11:30:08.044Z,15.44
2019-05-06T11:30:52.861Z,15.37
2019-05-06T11:31:33.336Z,15.56
2019-05-06T11:32:13.531Z,15.38
2019-05-06T11:32:58.823Z,15.4
2019-05-06T11:33:57.080Z,15.37
2019-05-06T11:34:44.567Z,15.43
2019-05-06T11:37:07.847Z,15.31
2019-05-06T11:37:53.978Z,15.34
2019-05-06T11:38:34.780Z,15.3
2019-05-06T11:39:18.284Z,15.41
2019-05-06T11:41:13.137Z,15.35
2019-05-06T11:42:23.670Z,15.37
2019-05-06T11:42:43.856Z,15.41
2019-05-06T11:43:24.479Z,15.35
2019-05-06T11:44:08.460Z,15.3
2019-05-06T11:44:53.032Z,15.46
2019-05-06T11:45:34.472Z,15.34
2019-05-06T11:46:17.332Z,15.19
2019-05-06T11:46:58.243Z,15.11
2019-05-06T11:47:42.056Z,15.2
2019-05-06T11:48:22.206Z,15.15
2019-05-06T11:49:03.348Z,15.2
2019-05-06T11:49:44.271Z,15.09
2019-05-06T11:50:28.826Z,15.03
2019-05-06T11:51:13.752Z,14.98
2019-05-06T11:51:55.977Z,14.82
2019-05-06T11:52:43.262Z,14.8
2019-05-06T11:53:24.020Z,14.69
2019-05-06T11:54:16.281Z,14.74
2019-05-06T11:54:47.228Z,14.66
2019-05-06T11:55:38.549Z,14.72
2019-05-06T11:56:16.367Z,14.63
2019-05-06T11:56:59.099Z,14.61
2019-05-06T11:57:44.350Z,14.52
2019-05-06T11:58:22.429Z,14.45
2019-05-06T11:59:03.773Z,14.46
2019-05-06T11:59:47.734Z,14.48
2019-05-06T12:00:28.302Z,14.42
2019-05-06T12:01:09.635Z,14.34
2019-05-06T12:01:57.129Z,14.39
2019-05-06T12:02:48.253Z,14.39
2019-05-06T12:03:32.534Z,14.42
2019-05-06T12:04:10.169Z,14.46
2019-05-06T12:04:52.871Z,14.45
2019-05-06T12:05:34.311Z,14.52
2019-05-06T12:06:18.040Z,14.61
2019-05-06T12:07:10.998Z,14.53
2019-05-06T12:08:00.738Z,14.49
2019-05-06T12:08:29.200Z,14.44
2019-05-06T12:09:12.963Z,14.38
2019-05-06T12:09:50.242Z,14.42
2019-05-06T12:10:33.793Z,14.39
2019-05-06T12:11:17.713Z,14.27
2019-05-06T12:12:03.237Z,14.35
2019-05-06T12:12:42.493Z,14.39
2019-05-06T12:13:26.226Z,14.31
2019-05-06T12:14:08.338Z,14.39
2019-05-06T12:14:49.090Z,14.31
2019-05-06T12:15:31.116Z,14.11
2019-05-06T12:16:14.005Z,14.12
2019-05-06T12:16:55.914Z,13.96
2019-05-06T12:17:37.152Z,14.01
2019-05-06T12:18:22.892Z,14.16
2019-05-06T12:19:03.771Z,14.13
2019-05-06T12:19:44.588Z,14.2
2019-05-06T12:20:25.822Z,14.13
2019-05-06T12:21:12.197Z,14.23
2019-05-06T12:21:50.844Z,14.34
2019-05-06T12:22:33.980Z,14.31
2019-05-06T12:23:22.251Z,14.36
2019-05-06T12:24:02.834Z,14.3
2019-05-06T12:24:44.273Z,14.3
2019-05-06T12:25:29.151Z,14.31
2019-05-06T12:26:13.165Z,14.16
2019-05-06T12:26:54.315Z,14.13
2019-05-06T12:27:34.867Z,14.17
2019-05-06T12:28:17.528Z,14.13
2019-05-06T12:29:02.127Z,14.24
2019-05-06T12:29:42.792Z,14.16
2019-05-06T12:30:25.069Z,14.13
2019-05-06T12:31:07.372Z,13.96
2019-05-06T12:31:48.711Z,13.98
2019-05-06T12:32:29.284Z,13.91
2019-05-06T12:33:12.967Z,14.02
2019-05-06T12:33:53.229Z,13.94
2019-05-06T12:34:32.499Z,13.98
2019-05-06T12:35:16.965Z,14.04
2019-05-06T12:35:58.239Z,13.98
2019-05-06T12:36:42.601Z,13.98
2019-05-06T12:37:22.764Z,13.9
2019-05-06T12:38:05.391Z,13.96
2019-05-06T12:38:44.699Z,14.09
2019-05-06T12:39:27.767Z,14.06
2019-05-06T12:40:07.662Z,14.01
2019-05-06T12:40:52.871Z,13.99
2019-05-06T12:41:33.312Z,14.06
2019-05-06T12:42:11.775Z,13.98
2019-05-06T12:42:53.412Z,13.96
2019-05-06T12:43:34.613Z,14.19
2019-05-06T12:44:15.082Z,14.11
2019-05-06T12:44:56.818Z,14.26
2019-05-06T12:45:38.795Z,14.23
2019-05-06T12:46:19.581Z,14.17
2019-05-06T12:47:03.502Z,14.23
2019-05-06T12:47:45.700Z,14.27
2019-05-06T12:48:28.318Z,14.3
2019-05-06T12:49:13.712Z,14.34
2019-05-06T12:50:02.653Z,14.31
2019-05-06T12:50:43.245Z,14.39
2019-05-06T12:51:23.571Z,14.45
2019-05-06T12:52:12.320Z,14.44
2019-05-06T12:52:52.520Z,14.42
2019-05-06T12:53:35.612Z,14.56
2019-05-06T12:54:18.088Z,14.54
2019-05-06T12:55:14.482Z,14.57
2019-05-06T12:55:42.882Z,14.61
2019-05-06T12:56:21.140Z,14.66
2019-05-06T12:57:03.227Z,14.64
2019-05-06T12:57:46.243Z,14.66
2019-05-06T12:58:29.867Z,14.64
2019-05-06T12:59:13.252Z,14.61
2019-05-06T12:59:56.227Z,14.59
2019-05-06T13:00:41.479Z,14.53
2019-05-06T13:01:25.176Z,14.46
2019-05-06T13:02:13.158Z,14.56
2019-05-06T13:02:53.486Z,14.44
2019-05-06T13:03:34.867Z,14.41
2019-05-06T13:04:15.836Z,14.45
2019-05-06T13:05:00.781Z,14.53
2019-05-06T13:05:43.088Z,14.61
2019-05-06T13:06:29.387Z,14.48
2019-05-06T13:07:13.792Z,14.39
2019-05-06T13:07:56.847Z,14.35
2019-05-06T13:08:53.751Z,14.42
2019-05-06T13:09:22.500Z,14.54
2019-05-06T13:10:03.267Z,14.66
2019-05-06T13:10:43.744Z,14.67
2019-05-06T13:11:27.016Z,14.64
2019-05-06T13:12:09.193Z,14.67
2019-05-06T13:12:54.046Z,14.69
2019-05-06T13:13:34.605Z,14.82
2019-05-06T13:14:16.487Z,14.9
2019-05-06T13:14:59.486Z,14.97
2019-05-06T13:15:46.202Z,15.01